Time;durP1;ratioP1;P1;durP2;ratioP2;P2;SDS_P1;SDS_P2;PMS_P1;PMS_P2;Temp;Humidity;BMP_temperature;BMP_pressure;BME280_temperature;BME280_humidity;BME280_pressure;Samples;Min_cycle;Max_cycle;Signal;HPM_P1;HPM_P2
2022/10/23 00:01:25;;;;;;;22.38;9.95;;;;;;;23.16;45.21;101406.69;5090649;28;20495;-71
2022/10/23 00:03:54;;;;;;;17.05;9.75;;;;;;;23.33;44.88;101396.91;5090731;28;20429;-71
2022/10/23 00:06:19;;;;;;;16.00;9.00;;;;;;;23.48;44.28;101396.06;5089967;28;20024;-71
2022/10/23 00:08:46;;;;;;;22.15;10.40;;;;;;;23.49;44.30;101408.44;5089608;28;20031;-71
2022/10/23 00:11:15;;;;;;;25.02;10.52;;;;;;;23.82;43.74;101399.50;5090561;28;20020;-71
2022/10/23 00:13:40;;;;;;;19.63;9.95;;;;;;;23.63;44.44;101398.78;5088109;28;20119;-71
2022/10/23 00:16:06;;;;;;;21.40;10.00;;;;;;;23.17;45.28;101405.72;5086031;28;20111;-70
2022/10/23 00:18:32;;;;;;;18.80;10.85;;;;;;;22.97;45.41;101406.78;5090777;28;20019;-71
2022/10/23 00:20:57;;;;;;;19.65;10.15;;;;;;;22.38;47.16;101403.63;5090286;28;20055;-71
2022/10/23 00:23:23;;;;;;;13.88;9.55;;;;;;;21.85;48.77;101403.50;5090257;28;20023;-71
2022/10/23 00:25:49;;;;;;;24.40;10.57;;;;;;;21.79;49.44;101405.59;5089670;28;20502;-70
2022/10/23 00:28:14;;;;;;;18.27;9.70;;;;;;;22.37;48.23;101401.88;5091175;28;20031;-70
2022/10/23 00:30:40;;;;;;;14.73;9.55;;;;;;;23.21;45.55;101385.94;5089789;28;20525;-71
2022/10/23 00:33:05;;;;;;;14.68;10.50;;;;;;;23.42;44.87;101390.19;5091817;28;20114;-72
2022/10/23 00:35:30;;;;;;;20.08;10.10;;;;;;;23.81;44.06;101394.22;5090452;28;20073;-70
2022/10/23 00:37:56;;;;;;;19.33;10.02;;;;;;;23.37;44.77;101387.78;5087018;28;20050;-71
2022/10/23 00:40:21;;;;;;;21.25;11.25;;;;;;;22.78;46.60;101395.34;5090536;28;20020;-70
2022/10/23 00:42:47;;;;;;;18.35;10.40;;;;;;;23.17;45.63;101392.38;5091845;28;20073;-71
2022/10/23 00:45:25;;;;;;;20.80;10.23;;;;;;;22.07;48.46;101405.09;5089244;28;20046;-71
2022/10/23 00:47:52;;;;;;;18.42;9.65;;;;;;;22.70;47.38;101395.78;5088891;28;20388;-71
2022/10/23 00:50:20;;;;;;;19.63;10.45;;;;;;;22.77;47.14;101389.16;5088746;28;20036;-71
2022/10/23 00:52:49;;;;;;;19.05;10.07;;;;;;;23.33;45.56;101391.56;5090228;28;20024;-71
2022/10/23 00:55:16;;;;;;;16.77;10.40;;;;;;;23.20;45.80;101392.25;5090117;28;20031;-71
2022/10/23 00:57:43;;;;;;;15.73;10.40;;;;;;;22.97;46.19;101384.56;5104612;28;20036;-71
2022/10/23 01:00:22;;;;;;;20.50;10.95;;;;;;;23.03;45.86;101386.94;5090180;28;20024;-71
2022/10/23 01:02:49;;;;;;;15.77;9.45;;;;;;;22.90;46.72;101383.19;5089546;28;20023;-71
2022/10/23 01:05:15;;;;;;;19.95;10.15;;;;;;;23.39;45.48;101383.22;5089641;28;20024;-71
2022/10/23 01:07:51;;;;;;;19.17;9.88;;;;;;;22.58;47.43;101388.41;5089070;28;20082;-71
2022/10/23 01:10:40;;;;;;;23.63;10.75;;;;;;;22.69;47.31;101380.72;5089638;28;20056;-71
2022/10/23 01:13:22;;;;;;;19.20;9.73;;;;;;;23.05;46.38;101371.69;5088313;28;20115;-70
2022/10/23 01:16:12;;;;;;;20.33;10.10;;;;;;;22.40;48.19;101380.44;5089578;28;20442;-71
2022/10/23 01:18:44;;;;;;;22.48;10.68;;;;;;;22.56;46.61;101379.63;5088010;28;20142;-71
2022/10/23 01:21:25;;;;;;;15.38;10.68;;;;;;;22.69;47.24;101376.22;5088312;28;20082;-71
2022/10/23 01:24:10;;;;;;;21.02;11.65;;;;;;;22.66;47.11;101380.88;5088510;28;20024;-71
2022/10/23 01:27:03;;;;;;;22.83;10.93;;;;;;;23.23;45.21;101369.00;5088795;28;20067;-71
2022/10/23 01:30:02;;;;;;;23.35;10.18;;;;;;;22.87;46.76;101373.53;5089550;28;20047;-71
2022/10/23 01:32:46;;;;;;;16.77;9.50;;;;;;;22.34;47.88;101362.13;5084239;28;20063;-71
2022/10/23 01:35:17;;;;;;;14.80;9.48;;;;;;;22.70;47.21;101359.31;5089919;28;20031;-71
2022/10/23 01:37:49;;;;;;;23.50;10.43;;;;;;;23.02;46.39;101361.22;5087146;28;20032;-71
2022/10/23 01:40:53;;;;;;;24.65;9.73;;;;;;;22.88;46.86;101359.28;5091399;28;20751;-71
2022/10/23 01:43:24;;;;;;;17.70;10.30;;;;;;;23.07;45.83;101353.81;5089514;28;20512;-71
2022/10/23 01:45:54;;;;;;;14.68;9.50;;;;;;;22.41;48.03;101350.19;5101057;28;20051;-71
2022/10/23 01:48:25;;;;;;;18.60;9.43;;;;;;;22.72;47.36;101347.72;5098107;28;20020;-71
2022/10/23 01:50:54;;;;;;;20.05;9.80;;;;;;;22.47;47.26;101339.22;5086671;28;20404;-71
2022/10/23 01:53:21;;;;;;;17.98;9.90;;;;;;;22.79;46.49;101323.34;5092720;28;20024;-71
2022/10/23 01:55:48;;;;;;;19.98;9.25;;;;;;;23.48;45.40;101334.69;5093207;28;20032;-71
2022/10/23 01:58:15;;;;;;;20.23;9.05;;;;;;;22.31;47.59;101327.59;5091817;28;20093;-71
2022/10/23 02:00:45;;;;;;;23.30;9.77;;;;;;;22.99;45.82;101330.25;5092836;28;20063;-71
2022/10/23 02:03:12;;;;;;;17.80;9.25;;;;;;;22.74;46.09;101328.06;5092810;28;20078;-71
2022/10/23 02:05:38;;;;;;;20.05;10.38;;;;;;;22.97;46.03;101323.28;5093146;28;20115;-71
2022/10/23 02:08:05;;;;;;;13.77;8.20;;;;;;;23.32;45.24;101320.50;5090718;28;20112;-72
2022/10/23 02:10:46;;;;;;;17.08;8.95;;;;;;;21.81;48.83;101324.75;5093133;28;20047;-71
2022/10/23 02:13:23;;;;;;;14.25;7.60;;;;;;;22.86;46.52;101314.06;5091938;28;20028;-70
2022/10/23 02:15:59;;;;;;;18.58;8.48;;;;;;;22.90;46.14;101320.06;5092817;28;20110;-71
2022/10/23 02:18:43;;;;;;;16.30;9.05;;;;;;;22.81;46.23;101308.13;5092511;28;20020;-71
2022/10/23 02:21:11;;;;;;;15.55;8.73;;;;;;;23.13;45.32;101331.34;5091428;28;20024;-71
2022/10/23 02:23:45;;;;;;;13.20;8.18;;;;;;;22.46;46.60;101326.84;5091479;28;20110;-71
2022/10/23 02:26:28;;;;;;;17.85;8.65;;;;;;;21.30;49.75;101324.53;5093265;28;20032;-71
2022/10/23 02:29:03;;;;;;;16.20;7.70;;;;;;;22.79;46.18;101320.69;5091732;28;20028;-71
2022/10/23 02:31:28;;;;;;;15.25;8.13;;;;;;;22.90;46.06;101319.22;5092063;28;20028;-71
2022/10/23 02:33:54;;;;;;;19.48;8.32;;;;;;;22.09;48.08;101323.41;5091722;28;20391;-71
2022/10/23 02:36:19;;;;;;;20.63;8.90;;;;;;;21.69;49.44;101320.03;5091302;28;20472;-71
2022/10/23 02:38:45;;;;;;;13.82;8.10;;;;;;;22.66;46.16;101312.47;5090955;28;20032;-71
2022/10/23 02:41:37;;;;;;;20.15;9.48;;;;;;;22.60;46.76;101307.47;5091940;28;20118;-71
2022/10/23 02:44:17;;;;;;;13.43;7.47;;;;;;;22.04;48.91;101304.13;5090893;28;20503;-71
2022/10/23 02:46:51;;;;;;;15.27;7.93;;;;;;;22.48;46.86;101295.66;5105368;27;20118;-71
2022/10/23 02:49:44;;;;;;;20.95;7.95;;;;;;;22.86;46.29;101298.09;5091746;28;20067;-71
2022/10/23 02:52:15;;;;;;;14.20;8.00;;;;;;;22.31;47.02;101288.53;5092043;28;20036;-71
2022/10/23 02:55:08;;;;;;;14.93;8.10;;;;;;;22.42;46.79;101285.34;5090892;28;20032;-71
2022/10/23 02:57:52;;;;;;;15.80;8.50;;;;;;;22.62;46.65;101272.75;5092082;28;20131;-71
2022/10/23 03:00:19;;;;;;;13.50;8.07;;;;;;;22.63;45.89;101266.50;5092251;28;20058;-71
2022/10/23 03:03:20;;;;;;;16.02;8.27;;;;;;;21.93;48.14;101258.59;5091181;28;20472;-71
2022/10/23 03:05:46;;;;;;;15.07;7.88;;;;;;;22.32;47.88;101244.13;5084948;28;20039;-71
2022/10/23 03:08:13;;;;;;;18.38;8.02;;;;;;;22.94;45.91;101248.81;5091777;28;20028;-71
2022/10/23 03:10:40;;;;;;;12.55;7.80;;;;;;;23.26;44.90;101246.16;5091292;28;20020;-71
2022/10/23 03:13:05;;;;;;;11.98;8.02;;;;;;;22.91;46.44;101246.34;5091683;28;20032;-71
2022/10/23 03:15:31;;;;;;;19.00;7.65;;;;;;;23.23;45.22;101257.03;5092313;28;20039;-70
2022/10/23 03:17:56;;;;;;;14.43;8.48;;;;;;;22.73;46.12;101251.72;5090158;28;20047;-70
2022/10/23 03:20:22;;;;;;;14.32;8.10;;;;;;;22.78;46.34;101252.34;5090913;28;20438;-71
2022/10/23 03:22:47;;;;;;;15.38;7.22;;;;;;;22.39;47.29;101240.22;5090784;28;20051;-71
2022/10/23 03:25:13;;;;;;;14.90;7.82;;;;;;;22.72;46.09;101234.00;5123186;27;20551;-71
2022/10/23 03:27:38;;;;;;;14.82;7.20;;;;;;;23.11;44.96;101238.06;5090826;28;20133;-71
2022/10/23 03:30:05;;;;;;;16.70;7.80;;;;;;;22.99;45.73;101228.09;5091742;28;20100;-71
2022/10/23 03:32:30;;;;;;;15.07;7.60;;;;;;;22.95;45.56;101231.88;5090704;28;20024;-71
2022/10/23 03:34:55;;;;;;;13.25;7.82;;;;;;;22.58;46.40;101228.59;5091221;28;20031;-71
2022/10/23 03:37:21;;;;;;;12.90;7.43;;;;;;;22.87;45.47;101225.19;5084706;28;20071;-70
2022/10/23 03:39:47;;;;;;;13.98;7.45;;;;;;;22.91;45.89;101219.69;5081257;28;20020;-71
2022/10/23 03:42:13;;;;;;;18.33;8.20;;;;;;;23.04;45.48;101220.72;5097920;28;20074;-71
2022/10/23 03:44:38;;;;;;;13.73;7.05;;;;;;;22.73;45.59;101211.75;5098232;28;20055;-71
2022/10/23 03:47:04;;;;;;;14.82;7.05;;;;;;;22.69;45.61;101199.56;5074047;28;20102;-71
2022/10/23 03:49:29;;;;;;;11.48;7.18;;;;;;;22.98;45.38;101194.41;5089629;28;20020;-71
2022/10/23 03:51:54;;;;;;;12.93;7.00;;;;;;;22.78;45.56;101196.38;5090581;28;20028;-71
2022/10/23 03:54:25;;;;;;;10.88;6.15;;;;;;;23.17;44.83;101197.75;5090413;28;20016;-71
2022/10/23 03:56:52;;;;;;;13.60;6.80;;;;;;;22.94;45.21;101191.03;5090453;28;20048;-71
2022/10/23 03:59:17;;;;;;;18.42;7.40;;;;;;;22.56;46.24;101198.50;5098508;27;20047;-71
2022/10/23 04:01:43;;;;;;;16.27;7.30;;;;;;;23.07;45.74;101193.88;5102086;28;20117;-70
2022/10/23 04:04:08;;;;;;;13.48;8.48;;;;;;;22.39;46.78;101192.28;5077836;28;20027;-71
2022/10/23 04:06:34;;;;;;;17.13;7.35;;;;;;;22.46;47.01;101192.81;5090940;28;20023;-71
2022/10/23 04:08:59;;;;;;;15.73;7.78;;;;;;;23.31;45.19;101188.09;5090901;28;20031;-71
2022/10/23 04:11:25;;;;;;;13.43;7.10;;;;;;;23.11;45.04;101190.09;5090999;28;20051;-71
2022/10/23 04:13:50;;;;;;;18.38;7.70;;;;;;;22.72;45.65;101187.88;5090559;28;20024;-71
2022/10/23 04:16:15;;;;;;;18.77;7.05;;;;;;;23.36;44.29;101178.03;5089101;28;20748;-71
2022/10/23 04:18:41;;;;;;;14.40;6.95;;;;;;;22.80;45.43;101175.81;5088905;28;20078;-70
2022/10/23 04:21:07;;;;;;;16.65;6.70;;;;;;;23.17;45.12;101157.75;5089742;28;20032;-71
2022/10/23 04:23:33;;;;;;;17.25;7.03;;;;;;;23.09;44.61;101167.97;5092094;28;20373;-71
2022/10/23 04:25:58;;;;;;;12.40;6.55;;;;;;;22.63;46.88;101162.59;5091711;28;20058;-72
2022/10/23 04:28:24;;;;;;;21.45;6.88;;;;;;;22.46;46.52;101155.53;5080668;28;20367;-71
2022/10/23 04:30:49;;;;;;;16.67;7.63;;;;;;;22.67;46.36;101150.84;5098938;28;20020;-71
2022/10/23 04:33:15;;;;;;;14.50;6.80;;;;;;;22.48;46.51;101149.19;5089721;28;20058;-71
2022/10/23 04:35:40;;;;;;;15.07;6.53;;;;;;;22.98;45.66;101151.75;5090930;28;20023;-72
2022/10/23 04:38:06;;;;;;;15.02;6.07;;;;;;;23.13;45.48;101145.56;5089224;28;20482;-71
2022/10/23 04:40:31;;;;;;;16.13;6.65;;;;;;;22.67;45.85;101142.84;5090808;28;20495;-71
2022/10/23 04:42:57;;;;;;;14.98;7.03;;;;;;;23.01;45.01;101132.91;5089775;28;20030;-71
2022/10/23 04:45:22;;;;;;;14.23;6.47;;;;;;;22.97;45.69;101139.38;5089417;28;20533;-71
2022/10/23 04:47:48;;;;;;;18.38;7.38;;;;;;;23.39;44.51;101140.50;5089535;28;20042;-71
2022/10/23 04:50:14;;;;;;;15.70;7.50;;;;;;;22.95;45.43;101150.13;5089152;28;20055;-71
2022/10/23 04:52:39;;;;;;;12.30;5.97;;;;;;;23.15;45.25;101149.00;5086930;28;20036;-71
2022/10/23 04:55:07;;;;;;;12.02;7.25;;;;;;;23.40;44.52;101150.25;5088773;28;20074;-71
2022/10/23 04:57:32;;;;;;;21.45;7.25;;;;;;;22.86;45.64;101154.19;5089631;28;20040;-72
2022/10/23 04:59:58;;;;;;;14.38;6.72;;;;;;;23.38;44.99;101144.13;5089600;28;20549;-71
2022/10/23 05:02:23;;;;;;;13.18;6.63;;;;;;;22.98;45.70;101138.44;5088222;28;20106;-71
2022/10/23 05:04:49;;;;;;;11.10;6.30;;;;;;;23.42;44.51;101140.31;5088382;28;20020;-71
2022/10/23 05:07:14;;;;;;;11.00;6.40;;;;;;;23.11;45.74;101134.09;5089918;28;20137;-71
2022/10/23 05:09:40;;;;;;;12.57;6.47;;;;;;;23.30;45.15;101135.72;5090147;28;20077;-71
2022/10/23 05:12:05;;;;;;;15.45;7.35;;;;;;;23.51;44.10;101129.13;5089979;28;20068;-71
2022/10/23 05:14:31;;;;;;;12.70;6.88;;;;;;;23.03;45.68;101118.56;5089189;28;20062;-71
2022/10/23 05:17:01;;;;;;;16.75;7.22;;;;;;;23.17;45.25;101114.25;5094239;28;20024;-72
2022/10/23 05:19:33;;;;;;;17.55;7.05;;;;;;;22.87;46.06;101134.59;5093294;28;20024;-72
2022/10/23 05:21:58;;;;;;;11.48;7.05;;;;;;;22.85;46.60;101136.47;5094480;28;20031;-71
2022/10/23 05:24:24;;;;;;;11.30;6.93;;;;;;;22.68;46.07;101134.75;5090199;28;20026;-72
2022/10/23 05:26:51;;;;;;;11.65;7.22;;;;;;;23.29;45.05;101129.53;5094070;28;20032;-71
2022/10/23 05:29:20;;;;;;;16.45;6.55;;;;;;;22.57;46.59;101133.63;5093515;28;20559;-71
2022/10/23 05:31:49;;;;;;;12.43;7.32;;;;;;;22.30;47.57;101134.19;5092397;28;20020;-72
2022/10/23 05:34:17;;;;;;;12.85;7.82;;;;;;;22.80;46.95;101133.19;5093075;28;20103;-71
2022/10/23 05:36:43;;;;;;;15.98;7.75;;;;;;;23.02;46.24;101131.97;5109474;28;20024;-72
2022/10/23 05:39:08;;;;;;;16.33;8.02;;;;;;;23.37;45.38;101131.75;5108079;28;20057;-71
2022/10/23 05:41:34;;;;;;;12.77;7.60;;;;;;;23.54;45.06;101128.91;5093357;28;20032;-71
2022/10/23 05:43:59;;;;;;;12.32;6.47;;;;;;;23.36;45.01;101127.38;5093127;28;20468;-72
2022/10/23 05:46:26;;;;;;;15.50;7.68;;;;;;;23.48;45.03;101123.09;5092690;28;20085;-72
2022/10/23 05:48:52;;;;;;;15.70;7.72;;;;;;;22.70;46.67;101124.88;5093405;28;20056;-71
2022/10/23 05:51:21;;;;;;;12.15;7.40;;;;;;;23.09;46.41;101122.66;5110504;28;20062;-72
2022/10/23 05:53:50;;;;;;;14.52;6.97;;;;;;;23.02;46.57;101126.63;5091376;28;20096;-72
2022/10/23 05:56:16;;;;;;;13.45;6.47;;;;;;;23.00;46.13;101115.22;5093088;28;20024;-71
2022/10/23 05:58:42;;;;;;;12.15;7.70;;;;;;;21.96;48.81;101107.59;5091776;28;20070;-71
2022/10/23 06:01:10;;;;;;;15.75;7.80;;;;;;;22.95;46.86;101103.97;5090809;28;20024;-72
2022/10/23 06:03:36;;;;;;;17.70;6.95;;;;;;;22.84;46.77;101102.75;5092666;28;20020;-71
2022/10/23 06:06:02;;;;;;;13.05;6.20;;;;;;;23.46;45.26;101096.50;5094569;28;20437;-71
2022/10/23 06:08:29;;;;;;;13.27;7.22;;;;;;;23.13;46.16;101107.38;5091514;28;20024;-71
2022/10/23 06:10:54;;;;;;;11.13;7.72;;;;;;;23.30;45.50;101109.06;5092947;28;20043;-71
2022/10/23 06:13:20;;;;;;;15.52;8.20;;;;;;;22.66;46.74;101103.81;5090262;28;20028;-71
2022/10/23 06:15:45;;;;;;;18.67;6.88;;;;;;;22.91;46.17;101097.09;5092237;28;20062;-71
2022/10/23 06:18:11;;;;;;;11.90;7.10;;;;;;;22.75;46.98;101092.66;5091344;28;20028;-72
2022/10/23 06:20:37;;;;;;;13.77;7.40;;;;;;;22.52;47.56;101089.47;5092296;28;20364;-72
2022/10/23 06:23:04;;;;;;;20.75;7.38;;;;;;;23.07;46.62;101081.91;5091090;28;20016;-72
2022/10/23 06:25:30;;;;;;;16.40;8.32;;;;;;;22.96;46.65;101076.38;5093900;28;20028;-71
2022/10/23 06:27:55;;;;;;;12.93;7.13;;;;;;;;;;5092494;28;20028;-72
2022/10/23 06:30:20;;;;;;;12.70;6.50;;;;;;;22.90;46.36;101076.72;5092339;28;20054;-71
2022/10/23 06:32:46;;;;;;;12.98;7.95;;;;;;;22.85;47.38;101072.50;5092013;28;20411;-71
2022/10/23 06:35:12;;;;;;;16.60;6.88;;;;;;;22.73;47.31;101065.22;5091718;28;20376;-71
2022/10/23 06:37:37;;;;;;;15.82;7.13;;;;;;;23.32;45.46;101056.50;5089685;28;20084;-72
2022/10/23 06:40:03;;;;;;;12.75;7.53;;;;;;;22.32;47.43;101055.09;5089289;28;20122;-71
2022/10/23 06:42:28;;;;;;;12.98;6.78;;;;;;;22.65;46.91;101043.50;5089132;28;20027;-71
2022/10/23 06:44:55;;;;;;;12.35;6.90;;;;;;;22.92;46.59;101040.19;5090735;28;20028;-71
2022/10/23 06:47:20;;;;;;;16.42;8.30;;;;;;;22.83;46.54;101045.09;5091241;28;20027;-71
2022/10/23 06:49:45;;;;;;;11.43;7.25;;;;;;;22.66;47.52;101051.38;5094382;28;20020;-71
2022/10/23 06:52:11;;;;;;;15.02;7.68;;;;;;;23.17;45.90;101050.28;5090756;28;20028;-71
2022/10/23 06:54:36;;;;;;;16.10;8.55;;;;;;;23.47;45.28;101039.56;5091751;28;20062;-71
2022/10/23 06:57:02;;;;;;;17.70;8.38;;;;;;;23.17;45.89;101050.28;5091342;28;20044;-71
2022/10/23 06:59:27;;;;;;;16.55;8.68;;;;;;;23.30;45.40;101055.72;5090148;28;20028;-72
2022/10/23 07:01:52;;;;;;;12.90;7.55;;;;;;;21.96;49.52;101053.50;5092809;28;20036;-72
2022/10/23 07:04:18;;;;;;;15.95;7.30;;;;;;;23.25;46.64;101045.34;5093507;28;20028;-72
2022/10/23 07:06:43;;;;;;;12.50;8.13;;;;;;;23.18;46.52;101042.19;5087109;28;20027;-72
2022/10/23 07:09:09;;;;;;;19.35;8.23;;;;;;;22.91;47.02;101033.13;5092420;28;20030;-72
2022/10/23 07:11:36;;;;;;;14.70;7.10;;;;;;;23.37;45.87;101022.41;5088570;28;20111;-72
2022/10/23 07:14:01;;;;;;;16.15;8.00;;;;;;;23.59;45.81;101023.75;5091244;28;20055;-72
2022/10/23 07:16:27;;;;;;;16.58;7.97;;;;;;;23.63;45.47;101014.59;5091162;28;20124;-72
2022/10/23 07:18:58;;;;;;;13.48;7.78;;;;;;;23.82;44.98;101025.84;5091326;28;20020;-72
2022/10/23 07:21:31;;;;;;;16.63;7.72;;;;;;;23.06;47.32;101032.22;5089807;28;20442;-72
2022/10/23 07:23:57;;;;;;;15.68;7.88;;;;;;;22.89;47.98;101046.56;5092893;28;20028;-72
2022/10/23 07:26:23;;;;;;;9.63;7.47;;;;;;;23.31;46.51;101046.78;5090960;28;20479;-72
2022/10/23 07:28:53;;;;;;;12.90;7.28;;;;;;;23.50;46.63;101028.69;5093027;28;20471;-72
2022/10/23 07:31:20;;;;;;;14.65;7.60;;;;;;;23.37;46.86;101033.09;5087782;28;20024;-72
2022/10/23 07:33:46;;;;;;;14.00;7.82;;;;;;;22.97;47.89;101028.31;5089493;28;20475;-72
2022/10/23 07:36:11;;;;;;;10.00;7.38;;;;;;;23.25;47.22;101025.84;5089636;28;20020;-71
2022/10/23 07:38:36;;;;;;;14.02;8.32;;;;;;;23.33;46.89;101023.56;5089000;28;20066;-71
2022/10/23 07:41:02;;;;;;;15.65;7.95;;;;;;;23.77;45.91;101019.94;5092723;28;20080;-71
2022/10/23 07:43:30;;;;;;;13.60;7.35;;;;;;;23.82;45.65;101020.53;5088667;28;20027;-72
2022/10/23 07:45:56;;;;;;;15.10;6.82;;;;;;;24.04;45.74;101019.16;5106897;27;20048;-71
2022/10/23 07:48:22;;;;;;;15.68;8.00;;;;;;;23.71;45.52;101022.97;5087905;28;20082;-72
2022/10/23 07:50:48;;;;;;;13.95;6.82;;;;;;;23.74;46.33;101022.81;5088624;28;20047;-72
2022/10/23 07:53:17;;;;;;;14.30;7.60;;;;;;;23.49;46.76;101012.78;5089456;28;20028;-72
2022/10/23 07:55:51;;;;;;;11.93;6.85;;;;;;;23.74;46.44;101012.13;5087499;28;20038;-73
2022/10/23 07:58:16;;;;;;;10.90;6.40;;;;;;;23.57;46.07;101004.31;5089119;28;20047;-71
2022/10/23 08:00:41;;;;;;;14.68;6.93;;;;;;;23.87;45.99;101007.72;5085104;28;20031;-72
2022/10/23 08:03:07;;;;;;;18.92;7.05;;;;;;;23.43;47.19;101003.34;5087710;28;20020;-72
2022/10/23 08:05:32;;;;;;;16.13;6.75;;;;;;;23.37;47.28;101003.75;5091431;28;20317;-72
2022/10/23 08:07:57;;;;;;;21.80;7.45;;;;;;;23.71;46.53;101006.97;5088007;28;20115;-72
2022/10/23 08:10:30;;;;;;;11.65;7.18;;;;;;;23.69;46.80;101008.91;5092056;28;20457;-71
2022/10/23 08:12:55;;;;;;;15.80;7.30;;;;;;;23.20;47.26;101012.75;5072937;28;20507;-72
2022/10/23 08:15:20;;;;;;;15.80;7.25;;;;;;;23.99;46.22;100999.94;5089093;28;20103;-72
2022/10/23 08:17:46;;;;;;;12.98;7.25;;;;;;;24.60;44.29;100996.88;5090360;28;20488;-71
2022/10/23 08:20:12;;;;;;;10.85;7.05;;;;;;;24.31;45.16;100988.97;5093937;28;20118;-72
2022/10/23 08:22:38;;;;;;;11.50;6.25;;;;;;;24.23;45.54;100989.47;5084359;28;20385;-72
2022/10/23 08:25:04;;;;;;;13.48;7.28;;;;;;;23.96;46.37;100989.44;5084680;28;20107;-72
2022/10/23 08:27:29;;;;;;;14.48;6.60;;;;;;;24.22;45.71;100969.94;5083708;28;20028;-72
2022/10/23 08:29:54;;;;;;;12.05;7.10;;;;;;;24.27;45.40;100971.44;5089697;28;20058;-72
2022/10/23 08:32:20;;;;;;;13.55;7.20;;;;;;;24.62;44.53;100966.47;5088866;28;20054;-72
2022/10/23 08:34:45;;;;;;;13.18;6.95;;;;;;;24.27;45.63;100971.44;5083090;28;20025;-72
2022/10/23 08:37:11;;;;;;;10.23;7.10;;;;;;;24.22;45.20;100967.25;5074155;28;20024;-72
2022/10/23 08:39:36;;;;;;;10.00;6.63;;;;;;;23.88;46.57;100969.44;5084400;28;20500;-73
2022/10/23 08:42:01;;;;;;;8.20;6.35;;;;;;;24.38;45.64;100968.91;5106528;28;20051;-72
2022/10/23 08:44:30;;;;;;;11.43;7.03;;;;;;;23.81;46.42;100962.75;5088481;28;20028;-73
2022/10/23 08:47:05;;;;;;;14.25;7.18;;;;;;;24.56;45.00;100961.47;5084363;28;20024;-73
2022/10/23 08:49:49;;;;;;;13.90;7.07;;;;;;;23.69;47.30;100963.53;5089398;28;20035;-73
2022/10/23 08:52:19;;;;;;;11.23;5.90;;;;;;;24.33;45.55;100947.00;5088074;28;20496;-73
2022/10/23 08:55:11;;;;;;;11.15;5.95;;;;;;;24.43;46.21;100961.47;5088034;28;20058;-73
2022/10/23 08:57:44;;;;;;;14.82;6.65;;;;;;;24.48;45.23;100943.31;5092163;28;20178;-73
2022/10/23 09:00:14;;;;;;;10.10;6.30;;;;;;;24.13;46.27;100949.16;5092338;27;20487;-73
2022/10/23 09:02:49;;;;;;;12.20;6.15;;;;;;;24.21;46.74;100938.84;5075132;28;20498;-73
2022/10/23 09:05:19;;;;;;;10.75;6.25;;;;;;;24.34;46.17;100938.03;5092889;28;20020;-71
2022/10/23 09:07:56;;;;;;;20.88;6.57;;;;;;;24.65;45.73;100928.84;5092212;28;20043;-72
2022/10/23 09:10:57;;;;;;;10.18;6.43;;;;;;;24.45;45.56;100931.97;5092382;28;20964;-74
2022/10/23 09:13:31;;;;;;;12.18;6.45;;;;;;;24.51;46.00;100926.19;5092576;28;20023;-73
2022/10/23 09:16:34;;;;;;;10.85;6.70;;;;;;;24.02;46.75;100922.31;5094449;28;20032;-73
2022/10/23 09:19:01;;;;;;;11.02;6.13;;;;;;;24.41;46.58;100917.94;5077014;28;20435;-72
2022/10/23 09:21:27;;;;;;;9.63;6.13;;;;;;;24.56;46.05;100924.97;5095028;28;20020;-72
2022/10/23 09:23:53;;;;;;;9.95;5.72;;;;;;;25.04;45.06;100929.72;5092163;28;20755;-71
2022/10/23 09:26:18;;;;;;;14.75;6.28;;;;;;;24.29;46.56;100916.09;5092827;28;20023;-72
2022/10/23 09:28:48;;;;;;;9.55;5.68;;;;;;;24.56;46.00;100919.63;5091730;28;20506;-72
2022/10/23 09:31:15;;;;;;;10.90;6.05;;;;;;;23.91;47.55;100911.50;5092714;28;20432;-73
2022/10/23 09:33:51;;;;;;;16.35;7.13;;;;;;;23.72;48.88;100915.31;5093151;28;20134;-73
2022/10/23 09:36:20;;;;;;;13.32;6.53;;;;;;;22.75;50.50;100911.47;5094695;28;20035;-73
2022/10/23 09:38:45;;;;;;;11.52;6.43;;;;;;;23.64;48.82;100901.59;5090245;28;20032;-73
2022/10/23 09:41:34;;;;;;;13.68;6.53;;;;;;;23.84;48.12;100897.66;5093117;28;20077;-72
2022/10/23 09:44:08;;;;;;;10.02;6.63;;;;;;;23.97;48.35;100892.41;5092870;28;20363;-72
2022/10/23 09:46:43;;;;;;;11.98;6.28;;;;;;;24.19;47.59;100884.69;5091876;28;20036;-72
2022/10/23 09:49:24;;;;;;;13.23;7.00;;;;;;;24.73;46.81;100883.75;5092144;28;20073;-72
2022/10/23 09:52:20;;;;;;;8.50;6.40;;;;;;;24.54;47.08;100900.16;5090790;28;20030;-73
2022/10/23 09:54:52;;;;;;;14.80;6.70;;;;;;;24.87;45.91;100898.81;5077234;28;20028;-72
2022/10/23 09:57:27;;;;;;;15.98;7.05;;;;;;;24.99;45.71;100889.09;5082556;28;20633;-72
2022/10/23 10:00:12;;;;;;;11.63;6.63;;;;;;;24.12;47.65;100885.19;5089320;28;20035;-72
2022/10/23 10:02:39;;;;;;;12.23;6.47;;;;;;;24.28;46.98;100882.38;5082472;28;20035;-72
2022/10/23 10:05:29;;;;;;;13.27;5.70;;;;;;;24.54;47.07;100894.81;5096149;28;20387;-72
2022/10/23 10:08:24;;;;;;;10.38;5.88;;;;;;;24.11;47.49;100884.34;5093087;28;20020;-72
2022/10/23 10:10:56;;;;;;;9.43;6.13;;;;;;;24.35;48.07;100871.16;5091436;28;20028;-72
2022/10/23 10:13:36;;;;;;;14.60;6.90;;;;;;;24.24;47.51;100868.34;5090879;28;20032;-73
2022/10/23 10:16:28;;;;;;;8.88;5.75;;;;;;;24.12;48.57;100867.34;5090462;28;20039;-72
2022/10/23 10:19:11;;;;;;;10.85;6.03;;;;;;;25.30;45.49;100857.50;5085007;28;20541;-72
2022/10/23 10:21:37;;;;;;;9.90;5.20;;;;;;;24.45;47.44;100847.34;5088485;28;20035;-72
2022/10/23 10:24:19;;;;;;;13.77;6.00;;;;;;;25.77;44.34;100840.78;5091968;28;20372;-72
2022/10/23 10:27:17;;;;;;;6.88;5.45;;;;;;;25.19;45.81;100850.22;5092827;28;20024;-73
2022/10/23 10:29:54;;;;;;;13.50;6.68;;;;;;;25.12;46.43;100851.66;5091614;28;20031;-72
2022/10/23 10:32:32;;;;;;;9.13;5.78;;;;;;;24.41;46.91;100840.50;5089547;28;20036;-72
2022/10/23 10:35:14;;;;;;;11.65;5.82;;;;;;;24.86;46.13;100840.97;5090772;28;20043;-72
2022/10/23 10:37:47;;;;;;;12.75;6.43;;;;;;;25.99;43.72;100815.94;5088642;28;20115;-72
2022/10/23 10:40:45;;;;;;;8.85;5.85;;;;;;;25.44;44.88;100813.72;5091456;28;20089;-72
2022/10/23 10:43:16;;;;;;;10.25;6.50;;;;;;;25.77;44.66;100798.81;5061774;28;20020;-73
2022/10/23 10:46:09;;;;;;;10.80;5.97;;;;;;;25.61;44.86;100784.88;5082844;28;20063;-73
2022/10/23 10:48:50;;;;;;;11.82;5.32;;;;;;;26.21;43.65;100770.53;5090840;28;20114;-72
2022/10/23 10:51:45;;;;;;;13.52;6.55;;;;;;;25.94;44.39;100767.25;5090084;28;20126;-72
2022/10/23 10:54:42;;;;;;;9.23;5.13;;;;;;;26.08;44.00;100769.75;5078436;28;20032;-72
2022/10/23 10:57:38;;;;;;;7.20;5.07;;;;;;;26.38;43.59;100761.19;5089299;28;20105;-73
2022/10/23 11:00:12;;;;;;;11.43;5.72;;;;;;;26.30;43.53;100760.91;5099984;27;20036;-73
2022/10/23 11:02:44;;;;;;;11.07;5.70;;;;;;;26.22;44.07;100756.16;5085096;28;20053;-73
2022/10/23 11:05:40;;;;;;;13.40;5.78;;;;;;;25.01;46.13;100752.63;5090501;28;20027;-72
2022/10/23 11:08:26;;;;;;;12.15;5.53;;;;;;;25.23;45.16;100749.25;5084742;28;20023;-72
2022/10/23 11:10:55;;;;;;;8.15;4.90;;;;;;;26.07;44.51;100741.28;5090126;28;20047;-72
2022/10/23 11:13:36;;;;;;;13.30;5.55;;;;;;;26.37;44.02;100731.81;5089317;28;20047;-73
2022/10/23 11:16:18;;;;;;;8.52;5.15;;;;;;;25.60;45.07;100721.63;5090462;28;20020;-72
2022/10/23 11:19:00;;;;;;;8.50;5.15;;;;;;;25.57;45.51;100718.22;5089849;28;20039;-72
2022/10/23 11:21:34;;;;;;;10.53;5.67;;;;;;;26.25;44.34;100712.19;5091083;28;20038;-72
2022/10/23 11:24:29;;;;;;;9.32;4.95;;;;;;;25.91;45.93;100710.28;5089674;28;20293;-72
2022/10/23 11:27:28;;;;;;;14.52;4.45;;;;;;;27.16;42.74;100696.94;5085052;28;20032;-72
2022/10/23 11:30:12;;;;;;;9.88;4.55;;;;;;;26.76;43.18;100700.16;5090563;28;20024;-72
2022/10/23 11:33:08;;;;;;;7.60;3.97;;;;;;;25.69;44.72;100700.38;5077177;28;20445;-73
2022/10/23 11:36:13;;;;;;;10.18;4.80;;;;;;;25.60;45.30;100690.38;5072535;28;20037;-72